createdAt,value
2018-06-12T00:00:54.971Z,61.89
2018-06-12T00:02:01.153Z,61.84
2018-06-12T00:03:07.174Z,61.78
2018-06-12T00:04:13.363Z,61.92
2018-06-12T00:05:19.619Z,61.90
2018-06-12T00:06:25.843Z,62.16
2018-06-12T00:07:32.056Z,62.26
2018-06-12T00:08:37.955Z,62.25
2018-06-12T00:09:44.176Z,62.27
2018-06-12T00:10:50.379Z,62.36
2018-06-12T00:11:56.537Z,62.65
2018-06-12T00:13:02.775Z,62.51
2018-06-12T00:14:09.029Z,62.29
2018-06-12T00:15:14.861Z,62.43
2018-06-12T00:16:20.792Z,62.21
2018-06-12T00:17:26.992Z,62.23
2018-06-12T00:18:33.236Z,62.61
2018-06-12T00:19:39.411Z,62.52
2018-06-12T00:20:45.614Z,62.55
2018-06-12T00:21:52.439Z,62.63
2018-06-12T00:22:58.710Z,62.38
2018-06-12T00:24:04.626Z,62.67
2018-06-12T00:25:10.774Z,62.64
2018-06-12T00:26:17.004Z,62.16
2018-06-12T00:27:23.251Z,62.38
2018-06-12T00:28:29.495Z,62.78
2018-06-12T00:29:35.679Z,62.84
2018-06-12T00:30:41.893Z,63.01
2018-06-12T00:31:48.071Z,62.94
2018-06-12T00:32:54.372Z,63.17
2018-06-12T00:34:00.630Z,63.01
2018-06-12T00:35:11.967Z,63.02
2018-06-12T00:36:18.178Z,62.86
2018-06-12T00:37:24.383Z,62.87
2018-06-12T00:38:30.633Z,62.73
2018-06-12T00:39:36.816Z,63.18
2018-06-12T00:40:43.058Z,63.15
2018-06-12T00:41:49.604Z,63.56
2018-06-12T00:42:55.429Z,63.47
2018-06-12T00:44:01.648Z,63.49
2018-06-12T00:45:07.788Z,63.51
2018-06-12T00:46:13.980Z,63.70
2018-06-12T00:47:20.151Z,63.65
2018-06-12T00:48:26.364Z,63.64
2018-06-12T00:49:32.650Z,63.84
2018-06-12T00:50:38.821Z,63.82
2018-06-12T00:51:45.014Z,63.86
2018-06-12T00:52:51.403Z,64.33
2018-06-12T00:53:57.596Z,64.56
2018-06-12T00:55:03.103Z,64.39
2018-06-12T00:56:09.115Z,64.52
2018-06-12T00:57:15.090Z,64.55
2018-06-12T00:58:21.323Z,64.41
2018-06-12T00:59:27.508Z,64.37
2018-06-12T01:00:33.118Z,64.33
2018-06-12T01:01:38.022Z,64.29
2018-06-12T01:02:44.183Z,64.53
2018-06-12T01:03:50.108Z,64.30
2018-06-12T01:04:56.759Z,64.80
2018-06-12T01:06:03.123Z,65.16
2018-06-12T01:07:09.302Z,65.51
2018-06-12T01:08:14.871Z,65.59
2018-06-12T01:09:21.155Z,65.36
2018-06-12T01:10:27.168Z,65.51
2018-06-12T01:11:33.408Z,65.86
2018-06-12T01:12:39.594Z,66.38
2018-06-12T01:13:45.825Z,66.13
2018-06-12T01:14:52.012Z,66.43
2018-06-12T01:15:58.307Z,66.24
2018-06-12T01:17:04.534Z,66.56
2018-06-12T01:19:15.235Z,66.50
2018-06-12T01:20:26.543Z,66.52
2018-06-12T01:21:32.735Z,66.99
2018-06-12T01:22:38.952Z,67.44
2018-06-12T01:23:45.282Z,67.83
2018-06-12T01:24:51.476Z,67.83
2018-06-12T01:25:57.656Z,68.03
2018-06-12T01:27:03.658Z,68.19
2018-06-12T01:28:09.875Z,68.24
2018-06-12T01:29:15.801Z,68.40
2018-06-12T01:30:21.956Z,68.38
2018-06-12T01:31:28.164Z,68.46
2018-06-12T01:32:34.328Z,68.50
2018-06-12T01:33:40.575Z,68.57
2018-06-12T01:34:46.499Z,69.04
2018-06-12T01:35:52.720Z,69.19
2018-06-12T01:36:58.610Z,68.93
2018-06-12T01:38:04.554Z,69.13
2018-06-12T01:39:10.506Z,69.15
2018-06-12T01:40:16.443Z,69.06
2018-06-12T01:41:22.624Z,69.01
2018-06-12T01:42:28.555Z,69.54
2018-06-12T01:43:34.476Z,69.88
2018-06-12T01:44:40.687Z,69.39
2018-06-12T01:45:46.937Z,69.19
2018-06-12T01:46:53.112Z,69.46
2018-06-12T01:47:59.321Z,69.64
2018-06-12T01:49:05.578Z,69.93
2018-06-12T01:50:17.971Z,70.27
2018-06-12T01:51:24.195Z,70.33
2018-06-12T01:52:30.374Z,70.33
2018-06-12T01:53:36.292Z,70.40
2018-06-12T01:54:42.585Z,70.11
2018-06-12T01:55:48.725Z,70.19
2018-06-12T01:56:54.695Z,70.29
2018-06-12T01:58:00.943Z,70.19
2018-06-12T01:59:06.906Z,69.94
2018-06-12T02:00:13.087Z,69.34
2018-06-12T02:01:19.310Z,69.82
2018-06-12T02:02:25.541Z,69.94
2018-06-12T02:03:31.510Z,69.90
2018-06-12T02:04:37.712Z,69.89
2018-06-12T02:05:43.598Z,69.67
2018-06-12T02:06:49.812Z,70.47
2018-06-12T02:07:55.458Z,70.71
2018-06-12T02:09:01.407Z,70.97
2018-06-12T02:10:07.422Z,71.76
2018-06-12T02:11:13.564Z,71.93
2018-06-12T02:12:19.772Z,72.35
2018-06-12T02:13:26.025Z,72.21
2018-06-12T02:14:31.957Z,72.14
2018-06-12T02:15:38.174Z,72.64
2018-06-12T02:16:44.382Z,72.95
2018-06-12T02:17:50.543Z,73.20
2018-06-12T02:18:56.782Z,73.02
2018-06-12T02:20:02.982Z,73.13
2018-06-12T02:21:08.881Z,73.00
2018-06-12T02:22:15.082Z,72.93
2018-06-12T02:23:21.281Z,73.38
2018-06-12T02:24:27.511Z,73.00
2018-06-12T02:25:33.715Z,73.13
2018-06-12T02:26:39.964Z,72.91
2018-06-12T02:27:46.196Z,73.09
2018-06-12T02:28:52.395Z,73.82
2018-06-12T02:29:58.308Z,73.76
2018-06-12T02:31:04.687Z,73.82
2018-06-12T02:32:10.971Z,73.16
2018-06-12T02:33:17.261Z,73.40
2018-06-12T02:34:23.498Z,73.29
2018-06-12T02:35:29.718Z,74.40
2018-06-12T02:36:35.949Z,74.52
2018-06-12T02:37:42.178Z,74.73
2018-06-12T02:38:48.403Z,74.71
2018-06-12T02:39:54.026Z,74.72
2018-06-12T02:41:00.003Z,75.11
2018-06-12T02:42:06.220Z,75.43
2018-06-12T02:43:12.493Z,75.29
2018-06-12T02:44:18.880Z,75.42
2018-06-12T02:45:25.117Z,75.37
2018-06-12T02:46:31.375Z,75.52
2018-06-12T02:47:37.610Z,74.87
2018-06-12T02:48:43.841Z,75.30
2018-06-12T02:49:50.092Z,75.20
2018-06-12T02:50:56.310Z,75.33
2018-06-12T02:52:02.193Z,74.85
2018-06-12T02:53:08.372Z,74.42
2018-06-12T02:54:14.594Z,75.26
2018-06-12T02:55:20.536Z,75.70
2018-06-12T02:56:26.759Z,76.00
2018-06-12T02:57:33.018Z,75.74
2018-06-12T02:58:39.226Z,75.91
2018-06-12T02:59:45.450Z,76.48
2018-06-12T03:00:51.814Z,76.68
2018-06-12T03:01:57.327Z,76.83
2018-06-12T03:03:03.518Z,76.99
2018-06-12T03:04:09.459Z,77.01
2018-06-12T03:05:15.658Z,77.16
2018-06-12T03:06:21.881Z,77.53
2018-06-12T03:07:28.192Z,77.66
2018-06-12T03:08:34.379Z,77.21
2018-06-12T03:09:40.315Z,77.53
2018-06-12T03:10:46.219Z,77.93
2018-06-12T03:11:52.443Z,77.69
2018-06-12T03:12:58.619Z,77.39
2018-06-12T03:14:04.819Z,77.35
2018-06-12T03:15:13.127Z,77.60
2018-06-12T03:16:19.315Z,78.35
2018-06-12T03:17:25.210Z,78.20
2018-06-12T03:18:31.397Z,78.11
2018-06-12T03:19:37.616Z,78.19
2018-06-12T03:20:43.497Z,78.53
2018-06-12T03:21:49.686Z,78.51
2018-06-12T03:22:55.913Z,78.29
2018-06-12T03:24:02.119Z,78.31
2018-06-12T03:25:08.369Z,78.10
2018-06-12T03:26:14.603Z,78.44
2018-06-12T03:27:20.780Z,78.54
2018-06-12T03:28:26.785Z,78.99
2018-06-12T03:29:32.980Z,79.56
2018-06-12T03:30:40.094Z,79.42
2018-06-12T03:31:47.350Z,79.65
2018-06-12T03:32:55.291Z,79.74
2018-06-12T03:34:02.826Z,79.70
2018-06-12T03:35:09.679Z,80.12
2018-06-12T03:36:17.459Z,80.37
2018-06-12T03:37:24.700Z,80.30
2018-06-12T03:38:31.759Z,80.69
2018-06-12T03:39:40.135Z,81.02
2018-06-12T03:40:48.316Z,81.09
2018-06-12T03:41:55.500Z,81.00
2018-06-12T03:43:02.296Z,80.87
2018-06-12T03:44:09.256Z,81.33
2018-06-12T03:45:15.521Z,81.61
2018-06-12T03:46:23.510Z,81.58
2018-06-12T03:47:30.982Z,81.88
2018-06-12T03:48:37.269Z,81.49
2018-06-12T03:49:43.794Z,81.73
2018-06-12T03:50:49.688Z,82.02
2018-06-12T03:51:56.026Z,82.38
2018-06-12T03:53:02.226Z,82.67
2018-06-12T03:54:08.450Z,82.29
2018-06-12T03:55:14.676Z,81.77
2018-06-12T03:56:20.929Z,82.31
2018-06-12T03:57:27.152Z,81.96
2018-06-12T03:58:33.409Z,81.94
2018-06-12T03:59:39.271Z,81.46
2018-06-12T04:00:45.225Z,81.75
2018-06-12T04:01:51.457Z,81.91
2018-06-12T04:02:57.661Z,81.75
2018-06-12T04:04:03.876Z,82.15
2018-06-12T04:05:10.094Z,82.44
2018-06-12T04:06:16.086Z,81.57
2018-06-12T04:07:22.311Z,81.31
2018-06-12T04:08:28.522Z,82.39
2018-06-12T04:09:34.783Z,82.02
2018-06-12T04:10:41.007Z,82.13
2018-06-12T04:11:47.546Z,82.12
2018-06-12T04:12:55.005Z,82.85
2018-06-12T04:14:01.572Z,83.25
2018-06-12T04:15:08.566Z,83.18
2018-06-12T04:16:15.096Z,83.49
2018-06-12T04:17:21.817Z,83.51
2018-06-12T04:18:29.073Z,83.54
2018-06-12T04:19:35.346Z,83.21
2018-06-12T04:20:41.653Z,83.39
2018-06-12T04:21:48.234Z,83.47
2018-06-12T04:22:54.415Z,83.50
2018-06-12T04:24:00.577Z,83.17
2018-06-12T04:25:06.537Z,83.27
2018-06-12T04:26:12.756Z,82.59
2018-06-12T04:27:18.959Z,82.45
2018-06-12T04:28:25.194Z,82.32
2018-06-12T04:29:31.449Z,81.73
2018-06-12T04:30:37.641Z,82.01
2018-06-12T04:31:43.856Z,81.89
2018-06-12T04:32:50.101Z,82.13
2018-06-12T04:33:56.547Z,82.08
2018-06-12T04:35:02.780Z,82.54
2018-06-12T04:36:08.992Z,82.59
2018-06-12T04:37:16.016Z,82.27
2018-06-12T04:38:22.263Z,82.17
2018-06-12T04:39:28.504Z,82.87
2018-06-12T04:40:34.728Z,83.46
2018-06-12T04:41:41.008Z,83.66
2018-06-12T04:42:47.261Z,83.79
2018-06-12T04:43:53.458Z,83.99
2018-06-12T04:44:59.616Z,83.92
2018-06-12T04:46:05.518Z,84.52
2018-06-12T04:47:11.755Z,84.26
2018-06-12T04:48:17.993Z,83.43
2018-06-12T04:49:24.503Z,83.74
2018-06-12T04:50:30.778Z,83.91
2018-06-12T04:51:36.988Z,83.84
2018-06-12T04:52:42.910Z,83.74
2018-06-12T04:53:49.400Z,83.91
2018-06-12T04:54:56.228Z,83.78
2018-06-12T04:56:03.638Z,83.95
2018-06-12T04:57:11.230Z,83.70
2018-06-12T04:58:19.011Z,83.87
2018-06-12T04:59:28.100Z,83.46
2018-06-12T05:00:42.650Z,83.76
2018-06-12T05:01:52.587Z,83.76
2018-06-12T05:02:58.758Z,83.54
2018-06-12T05:04:05.073Z,83.17
2018-06-12T05:05:11.468Z,82.82
2018-06-12T05:06:18.026Z,82.83
2018-06-12T05:07:25.207Z,82.54
2018-06-12T05:08:31.297Z,83.12
2018-06-12T05:09:37.565Z,83.54
2018-06-12T05:10:43.779Z,83.90
2018-06-12T05:11:49.992Z,84.05
2018-06-12T05:12:56.258Z,83.86
2018-06-12T05:14:02.459Z,83.52
2018-06-12T05:15:08.720Z,83.23
2018-06-12T05:16:15.003Z,82.82
2018-06-12T05:17:21.673Z,82.67
2018-06-12T05:18:27.862Z,82.55
2018-06-12T05:19:40.235Z,82.35
2018-06-12T05:20:46.708Z,82.60
2018-06-12T05:21:52.978Z,82.47
2018-06-12T05:22:59.179Z,82.43
2018-06-12T05:24:04.761Z,82.89
2018-06-12T05:25:11.019Z,83.24
2018-06-12T05:26:17.237Z,83.46
2018-06-12T05:27:23.503Z,83.62
2018-06-12T05:28:29.732Z,83.45
2018-06-12T05:29:35.907Z,83.28
2018-06-12T05:30:41.843Z,82.83
2018-06-12T05:31:48.098Z,82.52
2018-06-12T05:32:54.041Z,82.00
2018-06-12T05:34:00.227Z,82.10
2018-06-12T05:35:06.376Z,82.30
2018-06-12T05:36:12.607Z,81.73
2018-06-12T05:37:18.876Z,81.66
2018-06-12T05:38:25.120Z,81.54
2018-06-12T05:39:31.334Z,81.45
2018-06-12T05:40:37.598Z,80.72
2018-06-12T06:19:30.179Z,81.87
2018-06-12T06:20:36.526Z,82.63
2018-06-12T06:21:42.871Z,82.04
2018-06-12T06:22:49.131Z,81.93
2018-06-12T06:23:55.328Z,81.23
2018-06-12T06:25:01.596Z,81.53
2018-06-12T06:26:07.796Z,81.68
2018-06-12T06:27:14.059Z,80.67
2018-06-12T06:28:21.238Z,80.73
2018-06-12T06:29:28.723Z,80.43
2018-06-12T06:30:34.847Z,80.96
2018-06-12T06:31:41.028Z,81.55
2018-06-12T06:32:47.364Z,81.76
2018-06-12T06:33:53.598Z,81.58
2018-06-12T06:34:59.862Z,80.85
2018-06-12T06:36:06.186Z,80.64
2018-06-12T06:37:12.404Z,81.22
2018-06-12T06:38:18.635Z,81.02
2018-06-12T06:39:24.840Z,80.61
2018-06-12T06:40:31.030Z,79.79
2018-06-12T06:41:37.188Z,80.19
2018-06-12T06:42:43.393Z,80.70
2018-06-12T06:43:49.652Z,80.75
2018-06-12T06:44:55.843Z,80.06
2018-06-12T06:46:03.070Z,80.09
2018-06-12T06:47:09.351Z,79.53
2018-06-12T06:48:15.574Z,79.91
2018-06-12T06:49:21.818Z,79.70
2018-06-12T06:50:28.056Z,79.61
2018-06-12T06:51:34.455Z,78.76
2018-06-12T06:52:40.712Z,79.20
2018-06-12T06:53:46.978Z,78.91
2018-06-12T06:54:53.239Z,78.94
2018-06-12T06:55:59.438Z,77.84
2018-06-12T06:57:05.664Z,77.73
2018-06-12T06:58:11.890Z,77.74
2018-06-12T06:59:18.142Z,78.12
2018-06-12T07:00:25.580Z,78.58
2018-06-12T07:01:31.779Z,79.32
2018-06-12T07:02:37.760Z,78.40
2018-06-12T07:03:43.984Z,78.69
2018-06-12T07:04:50.193Z,78.84
2018-06-12T07:05:56.397Z,79.37
2018-06-12T07:07:02.594Z,78.41
2018-06-12T07:08:08.781Z,78.55
2018-06-12T07:09:15.007Z,78.37
2018-06-12T07:10:21.194Z,78.01
2018-06-12T07:11:27.395Z,77.47
2018-06-12T07:12:33.591Z,77.96
2018-06-12T07:13:39.822Z,77.58
2018-06-12T07:14:46.080Z,77.18
2018-06-12T07:15:52.288Z,76.92
2018-06-12T07:16:58.573Z,77.50
2018-06-12T07:18:04.613Z,76.61
2018-06-12T07:19:10.588Z,75.94
2018-06-12T07:20:15.803Z,75.42
2018-06-12T07:21:21.736Z,75.00
2018-06-12T07:22:27.760Z,74.61
2018-06-12T07:23:33.724Z,74.22
2018-06-12T07:24:39.924Z,75.70
2018-06-12T07:25:46.163Z,73.66
2018-06-12T07:26:52.395Z,74.42
2018-06-12T07:27:58.677Z,74.07
2018-06-12T07:29:04.975Z,73.97
2018-06-12T07:30:11.239Z,73.95
2018-06-12T07:31:17.619Z,74.28
2018-06-12T07:32:23.784Z,73.74
2018-06-12T07:33:29.991Z,72.45
2018-06-12T07:34:36.280Z,74.17
2018-06-12T07:35:42.604Z,73.37
2018-06-12T07:36:48.814Z,74.00
2018-06-12T07:37:55.127Z,73.58
2018-06-12T07:39:01.382Z,73.96
2018-06-12T07:40:07.595Z,73.89
2018-06-12T07:41:13.809Z,73.22
2018-06-12T07:42:20.119Z,73.79
2018-06-12T07:43:26.320Z,73.31
2018-06-12T07:44:32.796Z,75.05
2018-06-12T07:45:39.071Z,72.05
2018-06-12T07:46:45.261Z,72.84
2018-06-12T07:47:51.514Z,73.20
2018-06-12T07:48:57.768Z,72.37
2018-06-12T07:50:03.653Z,73.17
2018-06-12T07:51:09.901Z,73.58
2018-06-12T07:52:16.172Z,73.91
2018-06-12T07:53:22.399Z,74.29
2018-06-12T07:54:28.664Z,73.44
2018-06-12T07:55:34.975Z,73.28
2018-06-12T07:56:41.186Z,71.01
2018-06-12T07:57:47.545Z,71.12
2018-06-12T07:58:53.794Z,70.49
2018-06-12T08:00:00.248Z,70.66
2018-06-12T08:01:06.470Z,70.54
2018-06-12T08:02:13.214Z,72.31
2018-06-12T08:03:19.473Z,72.19
2018-06-12T08:04:25.834Z,71.60
2018-06-12T08:05:32.356Z,70.91
2018-06-12T08:06:38.819Z,71.69
2018-06-12T08:07:45.605Z,70.76
2018-06-12T08:08:52.644Z,71.53
2018-06-12T08:09:59.252Z,71.11
2018-06-12T08:11:05.583Z,71.02
2018-06-12T08:12:11.855Z,72.43
2018-06-12T08:13:18.040Z,70.96
2018-06-12T08:14:23.948Z,70.37
2018-06-12T08:15:30.192Z,70.81
2018-06-12T08:16:36.417Z,71.59
2018-06-12T08:17:42.709Z,69.82
2018-06-12T08:18:48.923Z,69.50
2018-06-12T08:19:55.123Z,69.58
2018-06-12T08:21:06.596Z,70.35
2018-06-12T08:22:12.577Z,69.44
2018-06-12T08:23:18.801Z,68.56
2018-06-12T08:24:25.149Z,66.92
2018-06-12T08:25:31.485Z,67.45
2018-06-12T08:26:37.674Z,67.06
2018-06-12T08:27:43.891Z,66.99
2018-06-12T08:28:50.142Z,68.03
2018-06-12T08:29:56.570Z,68.86
2018-06-12T08:31:03.071Z,68.50
2018-06-12T08:32:09.429Z,69.63
2018-06-12T08:33:15.767Z,68.82
2018-06-12T08:34:22.617Z,69.10
2018-06-12T08:35:28.926Z,69.10
2018-06-12T08:36:35.310Z,69.20
2018-06-12T08:37:41.132Z,68.83
2018-06-12T08:38:47.355Z,67.44
2018-06-12T08:39:54.763Z,68.64
2018-06-12T08:41:01.244Z,66.37
2018-06-12T08:42:07.492Z,65.68
2018-06-12T08:43:13.383Z,67.25
2018-06-12T08:44:19.678Z,67.96
2018-06-12T08:45:25.873Z,69.18
2018-06-12T08:46:32.194Z,66.54
2018-06-12T08:47:38.460Z,66.54
2018-06-12T08:48:44.732Z,68.16
2018-06-12T08:49:50.984Z,67.40
2018-06-12T08:50:57.180Z,67.22
2018-06-12T08:52:03.415Z,67.61
2018-06-12T08:53:09.618Z,68.03
2018-06-12T08:54:15.875Z,68.57
2018-06-12T08:55:22.127Z,68.66
2018-06-12T08:56:28.325Z,67.08
2018-06-12T08:57:34.553Z,67.57
2018-06-12T08:58:40.743Z,66.04
2018-06-12T08:59:47.108Z,65.89
2018-06-12T09:00:53.421Z,65.88
2018-06-12T09:01:59.637Z,66.63
2018-06-12T09:03:05.888Z,66.31
2018-06-12T09:04:12.077Z,66.76
2018-06-12T09:05:18.311Z,65.59
2018-06-12T09:06:24.584Z,66.48
2018-06-12T09:07:30.873Z,65.96
2018-06-12T09:08:37.159Z,65.12
2018-06-12T09:09:43.428Z,65.21
2018-06-12T09:10:49.627Z,64.09
2018-06-12T09:11:55.858Z,65.30
2018-06-12T09:13:02.081Z,65.07
2018-06-12T09:14:08.317Z,64.24
2018-06-12T09:15:14.541Z,65.01
2018-06-12T09:16:21.105Z,65.84
2018-06-12T09:17:27.336Z,65.37
2018-06-12T09:18:33.560Z,66.90
2018-06-12T09:19:39.790Z,65.96
2018-06-12T09:20:45.982Z,64.42
2018-06-12T09:21:52.176Z,65.20
2018-06-12T09:22:58.410Z,63.02
2018-06-12T09:24:04.367Z,63.22
2018-06-12T09:25:10.280Z,62.85
2018-06-12T09:26:16.687Z,63.27
2018-06-12T09:27:22.943Z,63.63
2018-06-12T09:28:29.129Z,63.40
2018-06-12T09:29:35.393Z,62.39
2018-06-12T09:30:41.650Z,62.44
2018-06-12T09:31:47.789Z,63.29
2018-06-12T09:32:53.933Z,62.64
2018-06-12T09:34:00.145Z,63.15
2018-06-12T09:35:06.019Z,63.73
2018-06-12T09:36:11.635Z,64.04
2018-06-12T09:37:17.876Z,63.88
2018-06-12T09:38:25.534Z,64.11
2018-06-12T09:39:31.907Z,63.27
2018-06-12T09:40:38.077Z,63.25
2018-06-12T09:41:44.251Z,63.93
2018-06-12T09:42:50.733Z,64.26
2018-06-12T09:43:56.903Z,64.35
2018-06-12T09:45:03.166Z,64.30
2018-06-12T09:46:09.408Z,65.24
2018-06-12T09:47:15.562Z,66.29
2018-06-12T09:48:21.805Z,63.34
2018-06-12T09:49:27.992Z,63.97
2018-06-12T09:50:34.237Z,61.87
2018-06-12T09:51:40.453Z,61.60
2018-06-12T09:52:46.711Z,61.71
2018-06-12T09:53:52.902Z,61.38
2018-06-12T09:54:59.087Z,62.42
2018-06-12T09:56:04.644Z,62.31
2018-06-12T09:57:10.564Z,62.92
2018-06-12T09:58:16.778Z,64.11
2018-06-12T09:59:23.054Z,61.18
2018-06-12T10:00:29.053Z,60.38
2018-06-12T10:01:35.005Z,60.98
2018-06-12T10:02:41.195Z,61.19
2018-06-12T10:03:47.100Z,61.60
2018-06-12T10:04:53.428Z,61.81
2018-06-12T10:05:59.666Z,61.44
2018-06-12T10:07:05.875Z,61.03
2018-06-12T10:08:12.044Z,61.71
2018-06-12T10:09:18.327Z,62.62
2018-06-12T10:10:24.362Z,62.40
2018-06-12T10:11:30.582Z,62.71
2018-06-12T10:12:36.750Z,61.99
2018-06-12T10:13:42.947Z,62.02
2018-06-12T10:14:49.185Z,61.40
2018-06-12T10:15:55.407Z,61.90
2018-06-12T10:17:01.650Z,62.57
2018-06-12T10:18:07.838Z,60.72
2018-06-12T10:19:14.133Z,60.24
2018-06-12T10:20:20.456Z,60.09
2018-06-12T10:21:26.676Z,60.53
2018-06-12T10:22:32.926Z,59.88
2018-06-12T10:23:39.118Z,59.82
2018-06-12T10:24:45.347Z,60.58
2018-06-12T10:25:51.956Z,60.89
2018-06-12T10:26:58.216Z,60.80
2018-06-12T10:28:04.188Z,60.35
2018-06-12T10:29:10.483Z,61.54
2018-06-12T10:30:16.717Z,62.42
2018-06-12T10:31:22.992Z,63.65
2018-06-12T10:32:29.169Z,61.66
2018-06-12T10:33:35.465Z,60.37
2018-06-12T10:34:41.735Z,59.78
2018-06-12T10:35:48.026Z,60.34
2018-06-12T10:36:54.451Z,60.95
2018-06-12T10:38:00.855Z,62.02
2018-06-12T10:39:07.218Z,61.57
2018-06-12T10:40:14.962Z,62.03
2018-06-12T10:41:21.224Z,61.31
2018-06-12T10:42:27.465Z,61.36
2018-06-12T10:43:33.688Z,62.90
2018-06-12T10:44:39.887Z,61.72
2018-06-12T10:45:46.471Z,60.98
2018-06-12T10:46:52.754Z,59.99
2018-06-12T10:47:58.918Z,61.13
2018-06-12T10:49:05.117Z,58.41
2018-06-12T10:50:11.347Z,59.36
2018-06-12T10:51:17.570Z,60.21
2018-06-12T10:52:23.761Z,61.36
2018-06-12T10:53:30.003Z,59.92
2018-06-12T10:54:36.182Z,60.83
2018-06-12T10:55:42.431Z,59.84
2018-06-12T10:56:48.604Z,58.46
2018-06-12T10:57:54.469Z,59.94
2018-06-12T10:59:00.699Z,59.74
2018-06-12T11:00:06.871Z,58.43
2018-06-12T11:01:13.319Z,59.55
2018-06-12T11:02:19.564Z,58.07
2018-06-12T11:03:25.873Z,57.41
2018-06-12T11:04:32.113Z,58.06
2018-06-12T11:05:38.300Z,57.43
2018-06-12T11:06:44.529Z,58.26
2018-06-12T11:07:50.785Z,57.03
2018-06-12T11:08:57.047Z,56.17
2018-06-12T11:10:03.301Z,57.30
2018-06-12T11:11:09.528Z,57.28
2018-06-12T11:12:15.712Z,57.85
2018-06-12T11:13:21.944Z,58.98
2018-06-12T11:14:28.150Z,58.77
2018-06-12T11:15:34.369Z,58.54
2018-06-12T11:16:40.760Z,57.15
2018-06-12T11:17:46.976Z,56.12
2018-06-12T11:18:53.227Z,57.26
2018-06-12T11:19:59.538Z,56.65
2018-06-12T11:21:05.765Z,56.71
2018-06-12T11:22:11.937Z,56.05
2018-06-12T11:23:18.134Z,56.66
2018-06-12T11:24:24.397Z,56.10
2018-06-12T11:25:30.589Z,56.08
2018-06-12T11:26:36.865Z,52.82
2018-06-12T11:27:43.041Z,52.21
2018-06-12T11:28:49.659Z,52.32
2018-06-12T11:29:55.851Z,52.70
2018-06-12T11:31:02.020Z,51.16
2018-06-12T11:32:08.261Z,52.33
2018-06-12T11:33:14.521Z,53.04
2018-06-12T11:34:20.740Z,51.78
2018-06-12T11:35:27.133Z,51.10
2018-06-12T11:36:33.322Z,52.12
2018-06-12T11:37:39.540Z,53.92
2018-06-12T11:38:45.763Z,53.59
2018-06-12T11:39:51.971Z,52.98
2018-06-12T11:40:58.225Z,51.19
2018-06-12T11:42:04.160Z,50.77
2018-06-12T11:43:10.316Z,51.25
2018-06-12T11:44:16.540Z,51.05
2018-06-12T11:45:22.699Z,52.20
2018-06-12T11:46:28.891Z,50.80
2018-06-12T11:47:35.115Z,51.13
2018-06-12T11:48:41.336Z,49.72
2018-06-12T11:49:47.549Z,50.67
2018-06-12T11:50:53.828Z,50.61
2018-06-12T11:52:00.262Z,49.93
2018-06-12T11:53:06.560Z,50.36
2018-06-12T11:54:12.810Z,49.83
2018-06-12T11:55:18.728Z,51.40
2018-06-12T11:56:24.923Z,49.47
2018-06-12T11:57:31.264Z,50.28
2018-06-12T11:58:37.546Z,50.66
2018-06-12T11:59:43.861Z,50.90
2018-06-12T12:00:50.091Z,50.66
2018-06-12T12:01:56.345Z,50.02
2018-06-12T12:03:02.532Z,50.85
2018-06-12T12:04:08.671Z,48.98
2018-06-12T12:05:14.867Z,50.40
2018-06-12T12:06:21.976Z,51.02
2018-06-12T12:07:28.216Z,49.47
2018-06-12T12:08:34.444Z,49.34
2018-06-12T12:09:40.444Z,49.15
2018-06-12T12:10:46.666Z,49.95
2018-06-12T12:11:52.998Z,49.10
2018-06-12T12:12:59.201Z,50.10
2018-06-12T12:14:05.125Z,50.75
2018-06-12T12:15:11.301Z,50.43
2018-06-12T12:16:17.546Z,50.38
2018-06-12T12:17:23.992Z,53.06
2018-06-12T12:18:30.187Z,54.42
2018-06-12T12:19:36.408Z,51.39
2018-06-12T12:20:42.620Z,51.23
2018-06-12T12:21:48.831Z,50.95
2018-06-12T12:22:54.987Z,50.88
2018-06-12T12:24:01.193Z,52.30
2018-06-12T12:25:07.473Z,52.29
2018-06-12T12:26:13.671Z,51.98
2018-06-12T12:27:19.970Z,54.24
2018-06-12T12:28:26.182Z,52.08
2018-06-12T12:29:32.526Z,51.50
2018-06-12T12:30:38.685Z,52.35
2018-06-12T12:31:44.854Z,52.42
2018-06-12T12:32:51.055Z,51.76
2018-06-12T12:33:57.264Z,52.40
2018-06-12T12:35:03.465Z,51.43
2018-06-12T12:36:09.682Z,50.87
2018-06-12T12:37:16.023Z,51.16
2018-06-12T12:38:22.227Z,50.81
2018-06-12T12:39:28.569Z,51.80
2018-06-12T12:40:34.759Z,51.75
2018-06-12T12:41:41.965Z,50.77
2018-06-12T12:42:48.288Z,50.29
2018-06-12T12:43:54.539Z,50.51
2018-06-12T12:45:00.782Z,50.42
2018-06-12T12:46:06.951Z,51.23
2018-06-12T12:47:13.192Z,50.15
2018-06-12T12:48:19.401Z,51.63
2018-06-12T12:49:25.825Z,51.24
2018-06-12T12:50:32.059Z,52.33
2018-06-12T12:51:38.239Z,51.78
2018-06-12T12:52:44.491Z,51.33
2018-06-12T12:53:50.740Z,51.68
2018-06-12T12:54:57.294Z,52.43
2018-06-12T12:56:03.598Z,50.58
2018-06-12T12:57:09.858Z,51.63
2018-06-12T12:58:16.123Z,51.86
2018-06-12T12:59:22.374Z,50.47
2018-06-12T13:00:28.580Z,49.92
2018-06-12T13:01:34.798Z,50.53
2018-06-12T13:02:41.012Z,50.78
2018-06-12T13:03:47.268Z,52.40
2018-06-12T13:04:53.453Z,51.59
2018-06-12T13:05:59.625Z,51.10
2018-06-12T13:07:05.828Z,52.43
2018-06-12T13:08:12.048Z,54.63
2018-06-12T13:09:18.482Z,53.42
2018-06-12T13:10:24.649Z,53.52
2018-06-12T13:11:30.983Z,53.60
2018-06-12T13:12:37.333Z,53.27
2018-06-12T13:13:43.532Z,53.24
2018-06-12T13:14:49.739Z,53.20
2018-06-12T13:15:55.909Z,53.69
2018-06-12T13:17:02.131Z,52.78
2018-06-12T13:18:08.326Z,54.89
2018-06-12T13:19:14.592Z,53.26
2018-06-12T13:20:20.848Z,53.29
2018-06-12T13:21:27.393Z,53.16
2018-06-12T13:22:33.607Z,53.70
2018-06-12T13:23:39.814Z,54.44
2018-06-12T13:24:46.107Z,53.83
2018-06-12T13:25:52.254Z,53.44
2018-06-12T13:26:58.442Z,53.31
2018-06-12T13:28:04.661Z,53.65
2018-06-12T13:29:10.916Z,53.04
2018-06-12T13:30:17.124Z,54.40
2018-06-12T13:31:23.274Z,53.42
2018-06-12T13:32:29.562Z,53.94
2018-06-12T13:33:35.863Z,53.58
2018-06-12T13:34:42.053Z,54.07
2018-06-12T13:35:48.260Z,53.83
2018-06-12T13:36:54.548Z,53.49
2018-06-12T13:38:00.735Z,53.69
2018-06-12T13:39:06.966Z,53.38
2018-06-12T13:40:13.480Z,53.55
2018-06-12T13:41:20.076Z,53.42
2018-06-12T13:42:26.319Z,54.34
2018-06-12T13:43:32.554Z,52.58
2018-06-12T13:44:38.761Z,52.83
2018-06-12T13:45:45.012Z,52.75
2018-06-12T13:46:54.204Z,52.50
2018-06-12T13:48:00.591Z,52.94
2018-06-12T13:49:06.838Z,53.55
2018-06-12T13:50:13.066Z,52.57
2018-06-12T13:51:19.305Z,54.02
2018-06-12T13:52:25.530Z,52.15
2018-06-12T13:53:32.065Z,52.93
2018-06-12T13:54:38.427Z,53.18
2018-06-12T13:55:44.719Z,52.93
2018-06-12T13:56:50.961Z,54.09
2018-06-12T13:57:57.211Z,54.18
2018-06-12T13:59:03.464Z,54.00
2018-06-12T14:00:10.645Z,53.67
2018-06-12T14:01:16.918Z,54.06
2018-06-12T14:02:23.133Z,54.40
2018-06-12T14:03:29.350Z,55.29
2018-06-12T14:04:35.596Z,55.36
2018-06-12T14:05:41.936Z,54.87
2018-06-12T14:06:48.116Z,54.97
2018-06-12T14:07:54.341Z,54.72
2018-06-12T14:09:00.555Z,53.86
2018-06-12T14:10:06.167Z,53.37
2018-06-12T14:11:12.445Z,54.28
2018-06-12T14:12:18.874Z,54.82
2018-06-12T14:13:25.170Z,54.24
2018-06-12T14:14:31.576Z,53.64
2018-06-12T14:15:37.745Z,54.72
2018-06-12T14:16:43.937Z,54.06
2018-06-12T14:17:50.112Z,54.39
2018-06-12T14:18:56.323Z,53.98
2018-06-12T14:20:02.564Z,53.92
2018-06-12T14:21:08.750Z,54.21
2018-06-12T14:22:14.993Z,53.28
2018-06-12T14:23:21.644Z,54.70
2018-06-12T14:24:27.794Z,54.15
2018-06-12T14:25:34.010Z,54.67
2018-06-12T14:26:40.197Z,55.62
2018-06-12T14:27:46.386Z,53.54
2018-06-12T14:28:53.508Z,54.23
2018-06-12T14:29:59.947Z,54.30
2018-06-12T14:31:06.212Z,53.59
2018-06-12T14:32:12.483Z,53.32
2018-06-12T14:33:18.715Z,52.27
2018-06-12T14:34:24.979Z,53.14
2018-06-12T14:35:31.411Z,52.89
2018-06-12T14:36:37.896Z,53.89
2018-06-12T14:37:44.063Z,53.52
2018-06-12T14:38:50.257Z,53.83
2018-06-12T14:39:56.593Z,54.86
2018-06-12T14:41:02.806Z,54.53
2018-06-12T14:42:09.072Z,54.23
2018-06-12T14:43:15.301Z,55.31
2018-06-12T14:44:21.610Z,54.69
2018-06-12T14:45:27.860Z,55.31
2018-06-12T14:46:34.169Z,55.67
2018-06-12T14:47:40.919Z,55.32
2018-06-12T14:48:47.291Z,55.72
2018-06-12T14:49:53.597Z,55.17
2018-06-12T14:50:59.845Z,55.53
2018-06-12T14:52:06.615Z,53.53
2018-06-12T14:53:13.535Z,53.43